LPPT/LIS METAR and TAF weather

Enter ICAO airport designator
Station Type Date Time Source
LPPT METAR 2023/02/04 03:00 UTC NOAA

LPPT 040300Z VRB01KT CAVOK 09/02 Q1031


Station Type Date Time Source
LPPT Decoded METAR 2023/02/04 03:00 UTC NOAA

Lisboa / Portela, Portugal (LPPT) 38-46N 009-08W 123M
Feb 03, 2023 - 10:00 PM EST / 2023.02.04 0300 UTC
Wind: Variable at 1 MPH (1 KT):0
Visibility: greater than 7 mile(s):0
Temperature: 48 F (9 C)
Dew Point: 35 F (2 C)
Relative Humidity: 61%
Pressure (altimeter): 30.45 in. Hg (1031 hPa)
ob: LPPT 040300Z VRB01KT CAVOK 09/02 Q1031
cycle: 3

Station Type Date Time Source
LPPT TAF 2023/02/03 18:18 UTC NOAA

TAF LPPT 031700Z 0318/0424 06005KT CAVOK
BECMG 0318/0320 33005KT
BECMG 0401/0404 04007KT
BECMG 0417/0419 32007KT

Example: see airport list